Time;durP1;ratioP1;P1;durP2;ratioP2;P2;SDS_P1;SDS_P2;PMS_P1;PMS_P2;Temp;Humidity;BMP_temperature;BMP_pressure;BME280_temperature;BME280_humidity;BME280_pressure;Samples;Min_cycle;Max_cycle;Signal;HPM_P1;HPM_P2
2023/05/25 00:02:15;;;;;;;8.93;2.90;;;;;;;10.31;56.93;99454.78;4975397;28;40868;-75
2023/05/25 00:04:42;;;;;;;6.10;2.63;;;;;;;10.22;57.59;99439.38;4975023;28;41100;-75
2023/05/25 00:07:11;;;;;;;6.47;2.60;;;;;;;10.29;57.55;99454.00;4958896;28;41785;-75
2023/05/25 00:09:39;;;;;;;7.30;3.03;;;;;;;10.31;57.63;99453.94;4974688;28;42830;-76
2023/05/25 00:12:07;;;;;;;6.10;2.73;;;;;;;10.30;57.54;99461.00;4974888;28;42366;-75
2023/05/25 00:14:35;;;;;;;6.13;3.10;;;;;;;10.10;57.23;99424.09;4992340;28;40742;-75
2023/05/25 00:17:03;;;;;;;7.63;3.03;;;;;;;10.29;57.88;99448.69;4958703;28;42142;-76
2023/05/25 00:19:32;;;;;;;4.57;2.40;;;;;;;10.28;57.91;99454.94;4973860;28;41689;-75
2023/05/25 00:22:01;;;;;;;7.17;3.13;;;;;;;10.26;58.47;99446.22;4972946;28;42371;-76
2023/05/25 00:24:30;;;;;;;9.47;3.20;;;;;;;10.26;58.69;99443.56;4990387;28;40991;-76
2023/05/25 00:26:59;;;;;;;6.80;2.90;;;;;;;10.22;58.21;99444.69;4958531;28;40722;-76
2023/05/25 00:29:26;;;;;;;7.50;3.37;;;;;;;10.23;58.31;99446.41;4974413;28;42065;-75
2023/05/25 00:31:54;;;;;;;5.27;2.63;;;;;;;10.17;58.17;99441.38;4973831;28;43134;-76
2023/05/25 00:34:22;;;;;;;6.43;2.97;;;;;;;10.18;57.75;99461.63;4974565;28;39499;-76
2023/05/25 00:36:50;;;;;;;6.80;2.70;;;;;;;10.15;57.60;99458.25;4974344;28;42285;-77
2023/05/25 00:39:19;;;;;;;5.73;2.53;;;;;;;10.12;57.47;99456.66;4958236;28;42061;-75
2023/05/25 00:41:49;;;;;;;4.00;2.60;;;;;;;10.09;57.51;99462.09;4974566;28;42636;-77
2023/05/25 00:44:20;;;;;;;7.30;2.73;;;;;;;9.97;58.54;99438.91;4974570;28;40735;-75
2023/05/25 00:46:50;;;;;;;5.63;2.50;;;;;;;10.01;58.94;99451.03;4974652;28;42238;-76
2023/05/25 00:49:19;;;;;;;6.90;3.50;;;;;;;9.98;59.05;99451.19;4958228;28;41691;-75
2023/05/25 00:51:48;;;;;;;8.70;3.70;;;;;;;9.96;59.80;99445.97;4992392;28;42182;-76
2023/05/25 00:54:16;;;;;;;8.90;3.17;;;;;;;9.78;59.57;99423.06;4992516;28;41526;-75
2023/05/25 00:56:50;;;;;;;8.03;3.23;;;;;;;9.97;58.97;99452.13;4974903;28;41728;-77
2023/05/25 00:59:26;;;;;;;6.37;2.90;;;;;;;9.98;59.16;99448.53;4972223;28;42864;-75
2023/05/25 01:01:55;;;;;;;5.03;3.03;;;;;;;9.96;58.90;99453.91;4958899;28;42320;-77
2023/05/25 01:04:27;;;;;;;6.03;3.30;;;;;;;9.95;58.88;99456.63;4975251;28;41744;-75
2023/05/25 01:06:57;;;;;;;7.50;3.57;;;;;;;9.93;59.38;99454.06;4975178;28;41461;-75
2023/05/25 01:09:27;;;;;;;7.73;3.30;;;;;;;9.93;59.17;99453.19;4975086;28;41623;-75
2023/05/25 01:11:59;;;;;;;7.97;3.90;;;;;;;9.92;59.58;99446.19;4974621;28;41204;-75
2023/05/25 01:14:28;;;;;;;4.77;2.80;;;;;;;9.91;59.42;99455.91;4958970;28;39966;-75
2023/05/25 01:16:58;;;;;;;6.13;3.00;;;;;;;9.91;59.43;99449.78;4956651;28;41126;-75
2023/05/25 01:19:27;;;;;;;6.33;2.80;;;;;;;9.90;60.42;99440.13;4957646;28;42927;-76
2023/05/25 01:22:03;;;;;;;5.87;3.07;;;;;;;9.89;60.17;99443.72;4973650;28;42389;-75
2023/05/25 01:24:39;;;;;;;6.97;3.13;;;;;;;9.87;60.59;99445.59;4973863;28;39834;-75
2023/05/25 01:27:12;;;;;;;6.40;2.90;;;;;;;9.85;60.38;99450.09;4957952;28;40785;-77
2023/05/25 01:29:43;;;;;;;6.73;2.77;;;;;;;9.82;60.74;99451.09;4970717;28;43781;-76
2023/05/25 01:32:12;;;;;;;6.07;2.73;;;;;;;9.79;60.66;99447.75;4974147;28;41815;-75
2023/05/25 01:34:43;;;;;;;10.70;3.80;;;;;;;9.72;61.17;99445.41;4957138;28;40030;-75
2023/05/25 01:37:13;;;;;;;9.03;3.47;;;;;;;9.75;61.59;99446.19;4957366;28;40724;-75
2023/05/25 01:39:41;;;;;;;11.97;3.40;;;;;;;9.71;62.25;99443.69;4957392;28;41563;-77
2023/05/25 01:42:09;;;;;;;6.73;3.13;;;;;;;9.71;61.79;99449.00;4991197;28;43315;-75
2023/05/25 01:44:37;;;;;;;8.20;3.20;;;;;;;9.69;62.06;99455.28;4973867;28;40913;-76
2023/05/25 01:47:10;;;;;;;6.50;3.33;;;;;;;9.69;61.69;99456.13;4957109;28;40669;-75
2023/05/25 01:49:45;;;;;;;8.77;3.40;;;;;;;9.67;61.81;99458.00;4956919;28;41636;-75
2023/05/25 01:52:20;;;;;;;6.60;3.27;;;;;;;9.65;61.71;99453.72;4973277;28;42482;-75
2023/05/25 01:54:53;;;;;;;6.23;3.53;;;;;;;9.56;61.68;99455.03;4957678;28;40950;-75
2023/05/25 01:57:22;;;;;;;6.43;3.43;;;;;;;9.63;62.63;99459.09;4957153;28;41759;-76
2023/05/25 01:59:54;;;;;;;7.17;3.10;;;;;;;9.55;62.38;99453.31;4973430;28;43341;-75
2023/05/25 02:02:22;;;;;;;10.33;3.87;;;;;;;9.60;61.87;99451.31;4971436;28;42322;-75
2023/05/25 02:04:50;;;;;;;6.77;3.43;;;;;;;9.54;61.30;99451.59;4990848;28;40694;-75
2023/05/25 02:07:20;;;;;;;5.47;3.17;;;;;;;9.58;61.97;99462.88;4959528;28;41634;-76
2023/05/25 02:09:47;;;;;;;9.17;3.67;;;;;;;9.55;62.25;99461.25;4960502;28;41902;-76
2023/05/25 02:12:15;;;;;;;7.27;3.83;;;;;;;9.54;61.70;99478.03;4960352;28;41139;-74
2023/05/25 02:14:44;;;;;;;6.67;3.53;;;;;;;9.41;62.15;99445.19;4976812;28;41879;-75
2023/05/25 02:17:12;;;;;;;11.33;3.87;;;;;;;9.52;62.54;99452.63;4960393;28;40648;-76
2023/05/25 02:19:40;;;;;;;6.30;3.33;;;;;;;9.50;62.32;99462.41;4960358;28;42020;-77
2023/05/25 02:22:08;;;;;;;5.93;3.10;;;;;;;9.19;62.18;99424.22;4976642;28;43000;-76
2023/05/25 02:24:37;;;;;;;7.97;3.53;;;;;;;9.43;62.21;99463.63;4994271;28;41961;-76
2023/05/25 02:27:06;;;;;;;11.43;4.87;;;;;;;9.44;62.18;99476.78;4960249;28;40820;-77
2023/05/25 02:29:34;;;;;;;8.17;2.80;;;;;;;9.42;62.32;99468.06;4960407;28;42842;-75
2023/05/25 02:32:02;;;;;;;6.33;3.10;;;;;;;9.40;63.00;99459.34;4976389;28;42843;-76
2023/05/25 02:34:30;;;;;;;8.87;3.33;;;;;;;9.38;63.14;99450.66;4960233;28;39933;-75
2023/05/25 02:36:57;;;;;;;7.57;3.53;;;;;;;9.36;63.92;99442.78;4976318;28;41782;-75
2023/05/25 02:39:27;;;;;;;5.07;3.50;;;;;;;9.23;63.70;99422.31;4960043;28;42479;-76
2023/05/25 02:41:57;;;;;;;9.20;3.70;;;;;;;9.35;63.32;99448.13;4976051;28;42837;-78
2023/05/25 02:44:27;;;;;;;8.60;3.20;;;;;;;9.34;63.66;99447.28;4974142;28;41147;-76
2023/05/25 02:46:56;;;;;;;7.70;4.00;;;;;;;9.33;63.46;99447.34;4977163;28;42049;-75
2023/05/25 02:49:24;;;;;;;5.17;3.40;;;;;;;9.31;63.56;99444.78;4961261;28;42781;-76
2023/05/25 02:51:52;;;;;;;5.63;3.20;;;;;;;9.29;63.73;99448.41;4977060;28;43215;-75
2023/05/25 02:54:20;;;;;;;6.17;3.37;;;;;;;9.27;63.73;99451.13;4961360;28;39841;-76
2023/05/25 02:56:47;;;;;;;8.00;3.97;;;;;;;9.26;65.16;99451.22;4976937;28;41754;-75
2023/05/25 02:59:19;;;;;;;9.00;3.70;;;;;;;9.24;64.41;99458.38;4977199;28;42662;-77
2023/05/25 03:01:47;;;;;;;7.07;3.53;;;;;;;9.23;64.39;99457.50;4976906;28;42284;-75
2023/05/25 03:04:15;;;;;;;10.83;3.47;;;;;;;9.18;64.84;99454.22;4960856;28;41406;-77
2023/05/25 03:06:44;;;;;;;12.20;3.60;;;;;;;9.20;64.75;99456.78;4958718;28;41294;-76
2023/05/25 03:09:18;;;;;;;8.57;3.90;;;;;;;9.20;64.84;99456.78;4973110;28;42756;-75
2023/05/25 03:11:49;;;;;;;7.47;3.67;;;;;;;9.19;64.70;99452.44;4959474;28;41493;-75
2023/05/25 03:14:20;;;;;;;8.80;3.70;;;;;;;9.19;64.51;99458.56;4975924;28;41601;-75
2023/05/25 03:17:00;;;;;;;7.17;3.60;;;;;;;9.17;65.19;99456.94;4959494;28;41800;-75
2023/05/25 03:19:28;;;;;;;9.47;4.00;;;;;;;9.15;66.05;99450.88;4959633;28;41665;-76
2023/05/25 03:21:56;;;;;;;5.10;3.30;;;;;;;9.15;66.01;99456.16;4975475;28;43096;-75
2023/05/25 03:24:30;;;;;;;6.20;3.23;;;;;;;9.10;66.51;99444.94;4973832;28;40882;-74
2023/05/25 03:27:01;;;;;;;9.43;3.93;;;;;;;9.18;65.89;99461.28;4959657;28;41034;-75
2023/05/25 03:29:30;;;;;;;8.13;3.80;;;;;;;9.07;65.41;99447.72;4975786;28;42921;-74
2023/05/25 03:31:58;;;;;;;8.00;4.00;;;;;;;9.21;65.57;99469.06;4959283;28;41179;-75
2023/05/25 03:34:29;;;;;;;7.90;3.80;;;;;;;9.15;65.87;99448.25;4959468;28;41080;-75
2023/05/25 03:36:57;;;;;;;7.37;4.30;;;;;;;9.23;66.14;99465.44;4959065;28;42486;-74
2023/05/25 03:39:24;;;;;;;5.03;3.33;;;;;;;9.24;65.57;99467.16;4959044;28;41520;-74
2023/05/25 03:41:54;;;;;;;6.57;4.10;;;;;;;9.27;66.32;99463.53;4975261;28;42386;-76
2023/05/25 03:44:22;;;;;;;7.63;3.70;;;;;;;9.28;65.78;99465.19;4975470;28;39810;-77
2023/05/25 03:46:52;;;;;;;6.27;3.53;;;;;;;9.30;66.24;99466.00;4959046;28;40647;-77
2023/05/25 03:49:19;;;;;;;7.30;4.10;;;;;;;9.31;66.14;99470.34;4975466;28;43765;-75
2023/05/25 03:51:47;;;;;;;4.47;3.30;;;;;;;9.32;65.90;99483.50;4958768;28;43620;-75
2023/05/25 03:54:15;;;;;;;6.80;4.00;;;;;;;9.34;66.07;99481.66;4975471;28;41666;-75
2023/05/25 03:56:42;;;;;;;8.20;3.73;;;;;;;9.36;66.39;99478.94;4975245;28;41431;-75
2023/05/25 03:59:10;;;;;;;7.13;3.87;;;;;;;9.39;66.40;99493.81;4975319;28;42789;-76
2023/05/25 04:01:38;;;;;;;6.97;3.43;;;;;;;9.42;66.15;99499.78;4975066;28;42396;-76
2023/05/25 04:04:08;;;;;;;8.10;4.60;;;;;;;9.41;66.20;99482.19;4975306;28;40787;-76
2023/05/25 04:06:37;;;;;;;8.87;3.60;;;;;;;9.49;66.47;99490.63;4972261;28;41701;-75
2023/05/25 04:09:05;;;;;;;7.10;3.57;;;;;;;9.54;66.37;99499.19;4959091;28;41739;-76
2023/05/25 04:11:34;;;;;;;9.10;3.37;;;;;;;9.59;66.38;99502.47;4974992;28;42685;-76
2023/05/25 04:14:01;;;;;;;5.63;3.63;;;;;;;9.62;66.02;99507.63;4958899;28;41057;-75
2023/05/25 04:16:32;;;;;;;9.13;3.70;;;;;;;9.70;66.10;99507.25;4974855;28;40658;-75
2023/05/25 04:19:00;;;;;;;8.10;3.87;;;;;;;9.76;66.26;99506.97;4974919;28;43687;-75
2023/05/25 04:21:30;;;;;;;5.13;3.33;;;;;;;9.82;65.71;99514.59;4974956;28;42303;-77
2023/05/25 04:23:57;;;;;;;6.50;3.90;;;;;;;9.90;65.24;99523.00;4974959;28;41822;-75
2023/05/25 04:26:26;;;;;;;6.93;3.90;;;;;;;9.98;65.09;99531.44;4974882;28;41409;-77
2023/05/25 04:28:56;;;;;;;7.30;3.53;;;;;;;10.05;65.48;99542.56;4973999;28;43718;-76
2023/05/25 04:31:35;;;;;;;6.97;3.23;;;;;;;10.14;65.20;99536.78;4971841;28;42805;-76
2023/05/25 04:34:26;;;;;;;9.27;3.90;;;;;;;10.20;65.13;99531.25;4971423;28;40069;-75
2023/05/25 04:37:07;;;;;;;8.70;4.17;;;;;;;10.27;64.55;99542.38;4958594;28;41668;-75
2023/05/25 04:39:36;;;;;;;8.23;4.40;;;;;;;10.31;65.21;99539.50;4958348;28;43173;-76
2023/05/25 04:42:04;;;;;;;6.07;3.40;;;;;;;10.40;64.87;99546.97;4958283;28;41344;-77
2023/05/25 04:44:33;;;;;;;6.10;3.40;;;;;;;10.48;64.28;99537.78;4958802;28;39893;-77
2023/05/25 04:47:02;;;;;;;8.17;3.70;;;;;;;10.58;63.92;99541.69;4959157;28;42013;-75
2023/05/25 04:49:33;;;;;;;5.83;3.83;;;;;;;10.73;64.02;99555.00;4975497;28;42570;-76
2023/05/25 04:52:01;;;;;;;5.63;3.10;;;;;;;10.85;63.95;99564.09;4974914;28;43313;-75
2023/05/25 04:54:32;;;;;;;9.07;3.43;;;;;;;10.97;63.46;99563.44;4959229;28;40901;-75
2023/05/25 04:57:03;;;;;;;9.57;3.90;;;;;;;11.03;63.51;99552.50;4958727;28;40741;-74
2023/05/25 04:59:32;;;;;;;7.00;3.57;;;;;;;11.19;63.48;99564.94;4975543;28;42489;-75
2023/05/25 05:02:00;;;;;;;8.83;3.80;;;;;;;11.29;62.94;99566.16;4958570;28;42596;-75
2023/05/25 05:04:29;;;;;;;7.67;3.50;;;;;;;11.43;62.96;99569.78;4959183;28;39878;-76
2023/05/25 05:06:56;;;;;;;10.30;4.73;;;;;;;11.56;62.74;99569.97;4974917;28;42811;-76
2023/05/25 05:09:25;;;;;;;8.53;3.87;;;;;;;11.63;62.59;99560.72;4975364;28;42755;-76
2023/05/25 05:11:58;;;;;;;5.97;3.80;;;;;;;11.77;62.25;99568.81;4972258;28;42059;-77
2023/05/25 05:14:26;;;;;;;7.33;3.63;;;;;;;11.88;61.94;99566.41;4957294;28;41415;-74
2023/05/25 05:16:56;;;;;;;6.77;4.00;;;;;;;11.94;61.70;99564.34;4958120;28;41044;-78
2023/05/25 05:19:28;;;;;;;8.47;4.10;;;;;;;12.10;61.64;99571.38;4974930;28;42772;-79
2023/05/25 05:21:56;;;;;;;7.80;4.00;;;;;;;12.19;60.98;99572.63;4971656;28;43198;-76
2023/05/25 05:24:26;;;;;;;9.60;3.60;;;;;;;12.34;61.24;99569.09;4958459;28;42391;-81
2023/05/25 05:26:54;;;;;;;8.73;3.30;;;;;;;12.43;60.84;99560.56;4974545;28;42703;-80
2023/05/25 05:29:23;;;;;;;9.93;3.80;;;;;;;12.43;60.38;99547.28;4974613;28;43770;-80
2023/05/25 05:31:51;;;;;;;8.77;3.60;;;;;;;12.68;59.97;99567.09;4958061;28;41268;-80
2023/05/25 05:34:19;;;;;;;5.63;3.27;;;;;;;12.71;59.63;99550.97;4959367;28;39562;-78
2023/05/25 05:36:46;;;;;;;6.73;3.60;;;;;;;12.80;59.50;99564.56;4958347;28;41040;-81
2023/05/25 05:39:14;;;;;;;7.63;3.70;;;;;;;13.03;58.92;99575.59;4992736;28;42511;-78
2023/05/25 05:41:44;;;;;;;6.77;3.20;;;;;;;13.15;58.71;99572.22;4957361;28;41669;-83
2023/05/25 05:44:11;;;;;;;11.17;3.90;;;;;;;13.24;58.80;99571.63;4975059;28;41279;-78
2023/05/25 05:46:41;;;;;;;8.50;3.77;;;;;;;13.35;58.65;99581.63;4958881;28;42027;-81
2023/05/25 05:49:09;;;;;;;7.93;3.90;;;;;;;13.46;58.10;99588.00;4992306;28;42904;-80
2023/05/25 05:51:37;;;;;;;6.77;3.63;;;;;;;13.61;57.98;99583.50;4958607;28;41393;-78
2023/05/25 05:54:05;;;;;;;6.30;3.43;;;;;;;13.72;57.82;99586.34;4958957;28;41047;-80
2023/05/25 05:56:33;;;;;;;6.50;3.80;;;;;;;13.58;57.78;99549.09;4958850;28;40709;-81
2023/05/25 05:59:01;;;;;;;7.90;3.80;;;;;;;13.96;56.40;99608.75;4975180;28;43433;-79
2023/05/25 06:01:29;;;;;;;9.10;3.47;;;;;;;14.09;56.22;99607.94;4973915;28;43205;-78
2023/05/25 06:03:58;;;;;;;7.97;4.13;;;;;;;14.23;55.81;99610.53;4957455;28;39895;-80
2023/05/25 06:06:26;;;;;;;5.13;3.67;;;;;;;14.35;55.87;99615.06;4957687;28;40703;-79
2023/05/25 06:08:54;;;;;;;10.23;4.10;;;;;;;14.45;55.73;99610.91;4957501;28;42506;-81
2023/05/25 06:11:21;;;;;;;5.60;3.00;;;;;;;14.52;56.01;99598.00;4990260;28;43332;-80
2023/05/25 06:13:49;;;;;;;7.70;3.83;;;;;;;14.67;54.55;99627.16;4973767;28;40818;-77
2023/05/25 06:16:17;;;;;;;7.13;4.03;;;;;;;14.77;54.37;99626.53;4957828;28;41758;-78
2023/05/25 06:18:45;;;;;;;6.80;3.93;;;;;;;14.84;54.38;99614.47;4973553;28;42845;-78
2023/05/25 06:21:14;;;;;;;6.40;3.50;;;;;;;14.97;54.21;99620.69;4973799;28;42101;-83
2023/05/25 06:23:42;;;;;;;7.70;3.40;;;;;;;15.12;53.86;99616.97;4991026;28;41147;-79
2023/05/25 06:26:10;;;;;;;5.47;3.83;;;;;;;15.17;53.43;99614.84;4973948;28;41929;-79
2023/05/25 06:28:38;;;;;;;7.50;3.83;;;;;;;15.31;53.20;99628.09;4958242;28;41356;-80
2023/05/25 06:31:06;;;;;;;8.43;4.07;;;;;;;15.47;52.96;99627.88;4975585;28;41339;-78
2023/05/25 06:33:33;;;;;;;6.67;3.43;;;;;;;15.61;52.86;99629.59;4976886;28;41186;-80
2023/05/25 06:36:01;;;;;;;5.03;3.13;;;;;;;15.80;53.17;99608.66;4960193;28;40570;-78
2023/05/25 06:38:31;;;;;;;6.30;3.33;;;;;;;15.91;52.22;99622.06;4959139;28;41984;-79
2023/05/25 06:41:02;;;;;;;8.77;4.13;;;;;;;16.07;51.77;99625.31;4974622;28;42441;-79
2023/05/25 06:43:30;;;;;;;6.97;3.87;;;;;;;16.19;51.12;99630.75;4974091;28;40886;-81
2023/05/25 06:46:16;;;;;;;5.00;3.50;;;;;;;16.38;50.91;99633.78;4958438;28;41549;-80
2023/05/25 06:48:44;;;;;;;6.03;3.43;;;;;;;16.62;50.86;99637.34;4958259;28;41654;-80
2023/05/25 06:51:12;;;;;;;6.93;3.50;;;;;;;16.91;51.09;99631.63;4974153;28;42718;-82
2023/05/25 06:53:41;;;;;;;9.07;3.60;;;;;;;17.18;50.38;99632.19;4961170;28;39975;-78
2023/05/25 06:56:08;;;;;;;8.37;3.47;;;;;;;17.32;49.18;99653.34;4977588;28;42748;-81
2023/05/25 06:58:36;;;;;;;8.57;3.37;;;;;;;17.50;48.86;99643.91;4994930;28;43783;-84
2023/05/25 07:01:04;;;;;;;6.37;3.53;;;;;;;17.64;48.63;99642.00;4976975;28;42478;-78
2023/05/25 07:03:32;;;;;;;9.07;3.60;;;;;;;17.75;48.02;99653.56;4993515;28;40572;-80
2023/05/25 07:06:00;;;;;;;6.10;3.07;;;;;;;17.85;47.49;99664.41;4960440;28;41061;-79
2023/05/25 07:08:27;;;;;;;6.53;3.40;;;;;;;17.97;47.80;99652.69;4962204;28;42935;-81
2023/05/25 07:10:57;;;;;;;5.37;3.27;;;;;;;18.15;47.96;99658.41;4995894;28;42266;-80
2023/05/25 07:13:24;;;;;;;5.57;3.50;;;;;;;18.23;47.17;99654.13;4995797;28;40885;-78
2023/05/25 07:15:52;;;;;;;7.40;4.00;;;;;;;18.41;47.39;99645.56;4978598;28;41868;-80
2023/05/25 07:18:20;;;;;;;6.50;3.60;;;;;;;18.67;46.76;99649.63;4962634;28;41779;-79
2023/05/25 07:20:48;;;;;;;9.37;3.63;;;;;;;18.94;46.62;99639.28;4977831;28;42843;-77
2023/05/25 07:23:16;;;;;;;7.57;3.60;;;;;;;19.28;45.09;99652.53;4960158;28;39973;-80
2023/05/25 07:25:44;;;;;;;6.10;3.77;;;;;;;19.93;44.86;99643.25;4960500;28;40753;-81
2023/05/25 07:28:13;;;;;;;5.83;2.97;;;;;;;20.63;43.82;99659.34;4976182;28;43837;-77
2023/05/25 07:30:41;;;;;;;6.93;3.47;;;;;;;21.45;42.48;99653.50;4994265;28;42506;-80
2023/05/25 07:33:09;;;;;;;5.73;3.23;;;;;;;22.31;40.94;99668.50;4977032;28;40864;-78
2023/05/25 07:35:36;;;;;;;7.13;3.53;;;;;;;22.95;39.29;99669.38;4977255;28;40458;-83
2023/05/25 07:38:04;;;;;;;5.87;3.27;;;;;;;23.41;38.42;99688.00;4994502;28;43519;-89
2023/05/25 07:40:32;;;;;;;7.30;3.50;;;;;;;23.49;36.91;99700.75;4977162;28;43502;-81
2023/05/25 07:43:00;;;;;;;5.40;3.07;;;;;;;23.48;36.44;99696.34;4994453;28;41876;-81
2023/05/25 07:45:29;;;;;;;4.37;2.63;;;;;;;23.34;36.92;99696.91;4961428;28;42068;-81
2023/05/25 07:47:56;;;;;;;6.13;3.00;;;;;;;22.96;37.36;99688.16;4994485;28;43664;-79
2023/05/25 07:50:24;;;;;;;7.13;3.40;;;;;;;22.88;37.71;99701.56;4976738;28;41605;-80
2023/05/25 07:52:52;;;;;;;9.50;3.83;;;;;;;23.20;37.76;99701.88;4976548;28;39716;-83
2023/05/25 07:55:20;;;;;;;6.80;3.33;;;;;;;24.82;35.53;99707.38;4976834;28;41749;-83
2023/05/25 07:57:47;;;;;;;5.43;3.00;;;;;;;26.47;32.87;99722.38;4976358;28;42960;-82
2023/05/25 08:00:16;;;;;;;4.80;3.20;;;;;;;27.43;31.06;99731.00;4960850;28;41558;-86
2023/05/25 08:02:45;;;;;;;13.50;6.30;;;;;;;27.71;29.60;99741.31;4976513;28;40791;-83
2023/05/25 08:05:13;;;;;;;5.80;3.37;;;;;;;27.49;30.82;99724.78;4992884;28;41695;-84
2023/05/25 08:07:41;;;;;;;7.03;3.17;;;;;;;27.33;30.22;99741.25;4976419;28;42725;-82
2023/05/25 08:10:09;;;;;;;5.97;3.40;;;;;;;27.35;31.39;99717.44;4994001;28;43287;-78
2023/05/25 08:12:37;;;;;;;9.57;3.93;;;;;;;27.98;30.28;99742.56;4960416;28;40151;-80
2023/05/25 08:15:06;;;;;;;6.90;3.20;;;;;;;28.78;28.33;99749.00;4994133;28;42721;-79
2023/05/25 08:17:34;;;;;;;6.73;3.40;;;;;;;30.04;28.16;99745.66;4976337;28;43078;-80
2023/05/25 08:20:05;;;;;;;6.00;3.17;;;;;;;31.05;27.78;99742.16;4976621;28;42366;-81
2023/05/25 08:22:33;;;;;;;6.30;3.20;;;;;;;31.63;26.50;99752.63;4991911;28;40747;-83
2023/05/25 08:25:00;;;;;;;4.50;3.13;;;;;;;31.76;26.07;99759.00;4993676;28;41847;-81
2023/05/25 08:27:28;;;;;;;6.70;3.23;;;;;;;31.61;25.12;99765.69;4975454;28;43747;-82
2023/05/25 08:29:56;;;;;;;8.53;3.50;;;;;;;31.41;25.70;99751.94;4975770;28;43319;-81
2023/05/25 08:32:23;;;;;;;5.77;3.27;;;;;;;31.27;25.58;99740.16;4993544;28;41657;-82
2023/05/25 08:34:51;;;;;;;6.67;3.60;;;;;;;31.55;25.27;99763.78;4976337;28;42114;-80
2023/05/25 08:37:22;;;;;;;6.43;3.00;;;;;;;32.39;25.89;99742.88;4976329;28;43773;-77
2023/05/25 08:39:50;;;;;;;6.63;3.80;;;;;;;33.36;23.89;99754.75;4976187;28;41333;-81
2023/05/25 08:42:17;;;;;;;5.97;3.30;;;;;;;33.93;22.40;99772.06;4960108;28;40948;-81
2023/05/25 08:44:45;;;;;;;6.15;3.47;;;;;;;34.29;22.06;99771.34;4975850;28;40726;-78
2023/05/25 08:47:18;;;;;;;6.07;3.23;;;;;;;33.29;23.57;99756.69;4960134;28;42107;-81
2023/05/25 08:49:46;;;;;;;5.63;3.43;;;;;;;32.26;23.98;99758.56;4975623;28;41022;-81
2023/05/25 08:52:15;;;;;;;6.77;3.67;;;;;;;31.35;25.46;99739.13;4973747;28;41003;-83
2023/05/25 08:54:45;;;;;;;6.00;3.30;;;;;;;30.71;25.91;99732.19;4975935;28;41949;-79
2023/05/25 08:57:17;;;;;;;4.47;3.43;;;;;;;29.63;26.62;99683.56;4976300;28;42759;-84
2023/05/25 08:59:50;;;;;;;7.07;3.30;;;;;;;29.32;27.48;99732.16;4975528;28;40912;-80
2023/05/25 09:02:26;;;;;;;6.10;3.40;;;;;;;28.82;27.70;99717.56;4958410;28;40877;-82
2023/05/25 09:04:55;;;;;;;8.27;2.90;;;;;;;28.50;27.91;99691.59;4959066;28;40833;-83
2023/05/25 09:07:23;;;;;;;6.13;3.00;;;;;;;28.57;28.47;99708.84;4974688;28;43175;-79
2023/05/25 09:09:53;;;;;;;7.60;2.90;;;;;;;28.43;29.55;99695.28;4974898;28;41168;-78
2023/05/25 09:12:22;;;;;;;6.23;3.47;;;;;;;28.20;28.96;99704.38;4958228;28;41023;-78
2023/05/25 09:14:50;;;;;;;6.87;3.50;;;;;;;28.29;29.61;99698.84;4991632;28;42067;-74
2023/05/25 09:17:19;;;;;;;5.13;4.17;;;;;;;28.36;29.24;99706.06;4974107;28;42002;-78
2023/05/25 09:19:47;;;;;;;8.50;3.37;;;;;;;28.36;29.44;99699.78;4958420;28;41279;-78
2023/05/25 09:22:15;;;;;;;6.37;3.17;;;;;;;28.20;30.40;99696.22;4973563;28;40996;-77
2023/05/25 09:24:43;;;;;;;8.27;3.90;;;;;;;28.07;30.80;99685.09;4958886;28;40676;-77
2023/05/25 09:27:13;;;;;;;7.27;3.30;;;;;;;28.35;28.48;99714.44;4975001;28;42156;-78
2023/05/25 09:29:41;;;;;;;5.97;3.20;;;;;;;28.91;29.71;99683.72;4974987;28;41325;-77
2023/05/25 09:32:09;;;;;;;4.60;3.37;;;;;;;29.58;27.32;99729.72;4974772;28;41079;-77
2023/05/25 09:34:37;;;;;;;6.33;3.43;;;;;;;29.76;27.17;99709.28;4958629;28;40602;-78
2023/05/25 09:37:11;;;;;;;5.90;3.20;;;;;;;29.78;26.56;99735.34;4992239;28;42721;-78
2023/05/25 09:39:40;;;;;;;5.17;3.23;;;;;;;29.62;26.79;99725.56;4974695;28;42324;-79
2023/05/25 09:42:08;;;;;;;6.70;3.30;;;;;;;29.87;27.38;99716.94;4992074;28;41004;-78
2023/05/25 09:44:37;;;;;;;6.03;3.00;;;;;;;30.85;26.01;99724.00;4958459;28;40801;-80
2023/05/25 09:47:06;;;;;;;5.47;3.50;;;;;;;31.62;24.50;99743.56;4991792;28;43439;-79
2023/05/25 09:49:33;;;;;;;8.00;3.17;;;;;;;32.35;24.35;99738.91;4958328;28;41273;-78
2023/05/25 09:52:01;;;;;;;4.03;2.80;;;;;;;33.35;23.75;99742.06;4990569;28;41670;-78
2023/05/25 09:54:29;;;;;;;6.83;3.90;;;;;;;33.86;21.38;99759.25;4992250;28;41722;-77
2023/05/25 09:56:57;;;;;;;6.37;3.57;;;;;;;33.27;23.44;99745.91;4957779;28;41785;-78
2023/05/25 09:59:25;;;;;;;4.87;3.07;;;;;;;32.46;23.87;99732.75;4958257;28;42539;-78
2023/05/25 10:01:54;;;;;;;6.43;3.33;;;;;;;31.90;25.61;99726.09;4974401;28;41043;-78
2023/05/25 10:04:22;;;;;;;6.67;3.70;;;;;;;31.33;25.33;99713.84;4991823;28;41717;-78
2023/05/25 10:06:51;;;;;;;6.30;3.57;;;;;;;31.08;25.94;99719.88;4991566;28;42638;-78
2023/05/25 10:09:20;;;;;;;4.00;3.10;;;;;;;30.96;26.90;99712.47;4974168;28;43245;-77
2023/05/25 10:11:51;;;;;;;6.17;3.57;;;;;;;30.93;26.75;99701.94;4974148;28;39914;-78
2023/05/25 10:14:24;;;;;;;6.47;3.57;;;;;;;31.68;25.99;99723.56;4971259;28;42487;-78
2023/05/25 10:16:57;;;;;;;4.60;3.47;;;;;;;32.44;24.31;99740.34;4957858;28;41642;-79
2023/05/25 10:19:29;;;;;;;7.63;3.67;;;;;;;33.38;24.65;99730.66;4957694;28;41584;-78
2023/05/25 10:22:04;;;;;;;6.23;4.13;;;;;;;33.67;22.46;99757.47;4971259;28;40992;-79
2023/05/25 10:24:38;;;;;;;5.57;3.63;;;;;;;33.44;23.31;99751.72;4970859;28;42777;-78
2023/05/25 10:27:10;;;;;;;5.63;3.40;;;;;;;33.43;23.16;99739.06;4958375;28;42213;-78
2023/05/25 10:29:39;;;;;;;5.40;3.77;;;;;;;33.55;22.66;99753.75;4961009;28;41758;-77
2023/05/25 10:32:09;;;;;;;7.17;3.90;;;;;;;33.24;23.25;99751.03;4976986;28;40084;-77
2023/05/25 10:34:37;;;;;;;4.97;3.60;;;;;;;32.97;22.81;99750.28;4993160;28;41891;-77
2023/05/25 10:37:06;;;;;;;9.07;3.77;;;;;;;32.89;23.35;99748.63;4959194;28;41868;-76
2023/05/25 10:44:13;;;;;;;4.57;3.57;;;;;;;31.72;24.30;99734.97;4990456;28;40980;-77
2023/05/25 10:46:41;;;;;;;5.93;3.67;;;;;;;31.19;24.16;99744.97;4959324;28;42022;-76
2023/05/25 10:49:12;;;;;;;5.73;3.70;;;;;;;30.75;25.34;99727.16;4976007;28;43786;-76
2023/05/25 10:51:42;;;;;;;7.40;3.90;;;;;;;30.41;25.73;99727.19;4959134;28;42599;-77
2023/05/25 10:54:14;;;;;;;6.97;4.07;;;;;;;30.33;27.91;99712.63;4993634;28;41661;-77
2023/05/25 11:01:13;;;;;;;7.33;3.90;;;;;;;30.96;26.99;99699.63;4952402;28;43497;-78
2023/05/25 11:03:57;;;;;;;7.00;3.87;;;;;;;31.15;26.03;99716.34;4935476;28;41486;-75
2023/05/25 11:06:57;;;;;;;6.33;3.97;;;;;;;31.04;24.36;99720.47;4933130;28;42513;-76
2023/05/25 11:09:27;;;;;;;4.93;3.50;;;;;;;30.63;26.41;99713.22;4951014;28;41996;-76
2023/05/25 11:12:05;;;;;;;5.00;3.60;;;;;;;30.50;28.25;99695.88;4936064;28;42884;-76
2023/05/25 11:14:36;;;;;;;5.67;4.00;;;;;;;30.44;26.49;99708.47;4935814;28;41465;-76
2023/05/25 11:17:05;;;;;;;5.13;4.00;;;;;;;30.29;26.03;99711.31;4944050;28;41489;-76
2023/05/25 11:19:41;;;;;;;7.10;4.07;;;;;;;30.30;27.91;99699.34;4959111;28;41898;-76
2023/05/25 11:22:19;;;;;;;5.17;3.80;;;;;;;30.21;29.32;99659.56;4959065;28;41164;-77
2023/05/25 11:24:49;;;;;;;5.87;3.77;;;;;;;30.03;26.81;99689.34;4960207;28;42386;-76
2023/05/25 11:27:22;;;;;;;7.23;4.30;;;;;;;30.10;28.10;99679.28;4976157;28;40626;-76
2023/05/25 11:29:51;;;;;;;5.03;3.30;;;;;;;30.18;29.00;99665.44;4975997;28;42039;-77
2023/05/25 11:32:19;;;;;;;5.47;3.80;;;;;;;30.17;28.12;99662.91;4976094;28;42041;-77
2023/05/25 11:34:48;;;;;;;6.33;4.30;;;;;;;30.36;26.11;99690.34;4959825;28;41267;-76
2023/05/25 11:37:19;;;;;;;5.57;4.30;;;;;;;30.58;29.37;99663.75;4975333;28;39842;-76
2023/05/25 11:39:50;;;;;;;5.00;4.27;;;;;;;30.98;28.37;99667.44;4972253;28;41853;-76
2023/05/25 11:42:20;;;;;;;4.50;3.77;;;;;;;31.35;27.72;99678.88;4958773;28;43571;-76
2023/05/25 11:44:48;;;;;;;6.43;4.20;;;;;;;31.92;27.50;99663.69;4992195;28;41658;-77
2023/05/25 11:47:21;;;;;;;6.13;3.77;;;;;;;32.86;25.78;99665.91;4942888;28;40983;-77
2023/05/25 11:49:50;;;;;;;4.60;4.10;;;;;;;33.84;22.86;99705.56;4975660;28;20754;-77
2023/05/25 11:52:19;;;;;;;8.93;4.27;;;;;;;34.47;21.53;99719.09;4990363;28;42702;-76
2023/05/25 11:54:48;;;;;;;5.40;4.37;;;;;;;35.88;22.74;99691.81;4974722;28;42330;-77
2023/05/25 11:57:16;;;;;;;4.53;3.90;;;;;;;36.91;21.77;99687.44;4970735;28;40185;-76